Time;durP1;ratioP1;P1;durP2;ratioP2;P2;SDS_P1;SDS_P2;PMS_P1;PMS_P2;Temp;Humidity;BMP_temperature;BMP_pressure;BME280_temperature;BME280_humidity;BME280_pressure;Samples;Min_cycle;Max_cycle;Signal;HPM_P1;HPM_P2
2022/06/01 06:00:27;;;;;;;1.60;1.50;;;17.60;68.60;;;;;;4918307;29;20227;-86
2022/06/01 06:09:55;;;;;;;2.53;1.90;;;16.70;74.40;;;;;;4948167;29;20238;-86
2022/06/01 06:12:41;;;;;;;2.90;1.75;;;16.60;78.40;;;;;;4945710;29;20198;-85
2022/06/01 06:15:12;;;;;;;3.17;1.60;;;16.50;78.30;;;;;;4946482;29;20201;-85
2022/06/01 07:02:08;;;;;;;3.78;1.80;;;17.20;68.60;;;;;;4972540;29;20232;-86
2022/06/01 07:25:39;;;;;;;3.42;2.55;;;18.20;57.80;;;;;;4955959;29;20290;-85
2022/06/01 07:32:26;;;;;;;2.60;1.80;;;18.10;55.70;;;;;;4925971;29;20205;-86
2022/06/01 08:16:12;;;;;;;2.83;1.63;;;19.60;39.80;;;;;;4931080;29;20178;-87
2022/06/01 08:18:54;;;;;;;2.13;1.63;;;20.10;39.60;;;;;;4940112;29;20205;-86
2022/06/01 08:21:42;;;;;;;2.20;1.70;;;22.70;30.80;;;;;;4928226;29;20202;-86
2022/06/01 08:24:09;;;;;;;3.72;1.70;;;25.60;20.40;;;;;;4923800;29;20210;-85
2022/06/01 08:26:56;;;;;;;1.70;1.60;;;27.30;15.30;;;;;;4929123;29;20434;-81
2022/06/01 08:29:23;;;;;;;1.77;1.50;;;28.20;15.70;;;;;;4932398;29;20241;-83
2022/06/01 08:32:02;;;;;;;2.83;1.98;;;28.30;14.20;;;;;;4933811;29;20197;-81
2022/06/01 08:34:42;;;;;;;3.28;1.90;;;28.80;11.50;;;;;;4935436;29;20209;-79
2022/06/01 08:37:12;;;;;;;2.55;2.20;;;27.20;12.00;;;;;;4930111;29;20212;-80
2022/06/01 08:39:48;;;;;;;3.75;2.13;;;27.00;14.00;;;;;;4928213;29;20204;-80
2022/06/01 08:42:23;;;;;;;3.10;1.92;;;28.10;12.00;;;;;;4926766;29;20276;-80
2022/06/01 08:45:18;;;;;;;2.38;2.10;;;29.70;11.00;;;;;;4934923;29;20299;-80
2022/06/01 08:47:46;;;;;;;4.45;2.03;;;32.40;7.60;;;;;;4932819;29;20228;-79
2022/06/01 08:50:49;;;;;;;3.60;2.20;;;32.90;6.00;;;;;;4931020;29;20210;-81
2022/06/01 08:53:30;;;;;;;4.57;2.55;;;34.00;6.20;;;;;;4924569;29;20646;-82
2022/06/01 08:56:09;;;;;;;5.13;2.60;;;33.90;2.60;;;;;;4925643;29;20206;-82
2022/06/01 08:59:13;;;;;;;4.45;2.83;;;34.40;1.60;;;;;;4925699;29;20225;-81
2022/06/01 09:02:05;;;;;;;3.95;3.10;;;34.90;2.40;;;;;;4930351;29;20563;-80
2022/06/01 09:04:54;;;;;;;2.92;2.72;;;35.90;1.60;;;;;;4931304;29;20229;-80
2022/06/01 09:07:34;;;;;;;3.90;3.60;;;37.30;1.00;;;;;;4938685;29;20197;-81
2022/06/01 09:10:30;;;;;;;3.88;3.50;;;38.30;1.00;;;;;;4932266;29;20209;-81
2022/06/01 09:13:04;;;;;;;3.35;3.05;;;38.20;1.20;;;;;;4937672;29;20229;-80
2022/06/01 09:15:48;;;;;;;3.72;3.30;;;35.90;1.00;;;;;;4929022;29;20654;-82
2022/06/01 09:18:29;;;;;;;4.85;3.30;;;35.90;1.00;;;;;;4920172;29;20218;-81
2022/06/01 09:23:48;;;;;;;3.40;3.10;;;36.20;1.00;;;;;;4936656;29;20256;-82
2022/06/01 09:26:27;;;;;;;4.53;3.30;;;35.20;2.10;;;;;;4936414;29;20723;-81
2022/06/01 09:28:56;;;;;;;3.08;2.85;;;33.80;1.10;;;;;;4925548;29;20664;-87
2022/06/01 09:31:29;;;;;;;3.40;2.70;;;33.50;2.00;;;;;;4930476;29;20197;-81
2022/06/01 09:34:17;;;;;;;2.65;2.40;;;31.30;3.50;;;;;;4935207;29;20686;-81
2022/06/01 09:36:57;;;;;;;5.93;3.00;;;32.80;4.60;;;;;;4934214;29;20212;-85
2022/06/01 09:39:39;;;;;;;3.50;2.70;;;33.10;4.60;;;;;;4940611;29;20212;-81
2022/06/01 09:42:26;;;;;;;4.72;3.08;;;34.50;3.20;;;;;;4941024;28;20284;-81
2022/06/01 09:45:02;;;;;;;4.55;3.15;;;35.30;2.20;;;;;;4930713;29;20232;-82
2022/06/01 09:47:40;;;;;;;4.28;3.08;;;35.70;1.30;;;;;;4934745;29;20193;-82
2022/06/01 09:50:28;;;;;;;3.80;3.05;;;35.90;1.30;;;;;;4941522;29;20261;-81
2022/06/01 09:53:00;;;;;;;3.00;2.80;;;35.70;2.40;;;;;;4928599;29;20206;-81
2022/06/01 09:55:42;;;;;;;3.80;2.67;;;33.80;3.40;;;;;;4934566;29;20906;-81
2022/06/01 10:06:58;;;;;;;3.22;2.22;;;30.60;7.30;;;;;;4946009;29;20280;-80
2022/06/01 10:09:29;;;;;;;3.10;2.40;;;30.10;8.50;;;;;;4946393;29;20293;-80
2022/06/01 10:11:57;;;;;;;4.05;2.40;;;29.90;8.60;;;;;;4951376;29;20201;-81
2022/06/01 10:14:30;;;;;;;2.70;2.17;;;30.00;7.00;;;;;;4949077;29;20206;-82
2022/06/01 10:17:11;;;;;;;3.90;2.63;;;30.10;9.10;;;;;;4938925;29;20210;-81
2022/06/01 10:20:05;;;;;;;3.78;2.00;;;29.80;8.90;;;;;;4937353;29;20197;-83
2022/06/01 10:22:50;;;;;;;3.25;2.20;;;28.90;8.50;;;;;;4930896;29;20574;-80
2022/06/01 10:25:38;;;;;;;5.03;2.03;;;28.90;9.70;;;;;;4938256;29;20950;-80
2022/06/01 10:28:08;;;;;;;2.72;2.03;;;28.60;9.90;;;;;;4935921;29;20201;-80
2022/06/01 10:31:01;;;;;;;5.03;2.05;;;27.30;11.40;;;;;;4938938;29;20221;-79
2022/06/01 10:33:37;;;;;;;2.33;1.80;;;27.40;11.30;;;;;;4934092;29;20581;-79
2022/06/01 10:36:10;;;;;;;2.75;2.08;;;26.90;12.20;;;;;;4932373;29;20205;-82
2022/06/01 10:38:43;;;;;;;5.00;2.17;;;26.50;12.10;;;;;;4933356;29;20216;-81
2022/06/01 10:41:30;;;;;;;1.88;1.73;;;26.00;13.00;;;;;;4934528;28;20234;-81
2022/06/01 10:44:02;;;;;;;2.10;1.90;;;25.50;14.40;;;;;;4934243;29;20236;-81
2022/06/01 10:46:47;;;;;;;3.22;1.70;;;25.60;14.50;;;;;;4936872;29;20218;-81
2022/06/01 10:49:40;;;;;;;4.10;2.03;;;25.50;14.40;;;;;;4933728;29;20609;-81
2022/06/01 10:52:29;;;;;;;2.55;2.00;;;25.70;14.50;;;;;;4938285;29;20212;-82
2022/06/01 10:55:16;;;;;;;4.20;1.92;;;25.70;14.50;;;;;;4936925;29;20205;-82
2022/06/01 10:57:47;;;;;;;6.57;2.60;;;25.70;14.50;;;;;;4947569;29;22031;-82
2022/06/01 11:00:17;;;;;;;5.43;2.00;;;25.60;14.50;;;;;;4941116;29;20214;-84
2022/06/01 11:03:24;;;;;;;2.10;1.90;;;25.60;14.40;;;;;;4933891;29;20197;-84
2022/06/01 11:06:14;;;;;;;3.15;1.90;;;25.70;14.50;;;;;;4936809;29;20217;-85
2022/06/01 11:08:54;;;;;;;2.33;1.65;;;25.90;14.60;;;;;;4929005;29;20229;-82
2022/06/01 11:11:51;;;;;;;2.08;1.88;;;25.70;15.50;;;;;;4935644;29;20220;-82
2022/06/01 11:14:54;;;;;;;3.83;1.85;;;26.10;14.70;;;;;;4935092;29;20665;-84
2022/06/01 11:17:26;;;;;;;2.50;1.70;;;26.80;15.80;;;;;;4941003;29;20205;-83
2022/06/01 11:20:19;;;;;;;2.08;1.88;;;27.10;14.10;;;;;;4938254;29;20207;-87
2022/06/01 11:23:10;;;;;;;2.13;1.60;;;26.80;15.00;;;;;;4941124;29;20197;-83
2022/06/01 11:25:52;;;;;;;2.70;1.80;;;27.40;15.40;;;;;;4941729;29;20605;-83
2022/06/01 11:29:03;;;;;;;3.22;1.70;;;27.20;12.80;;;;;;4931253;29;20201;-85
2022/06/01 11:31:41;;;;;;;2.70;1.73;;;26.10;13.40;;;;;;4940812;29;20265;-84
2022/06/01 11:34:54;;;;;;;4.35;2.10;;;26.00;14.70;;;;;;4933089;29;20202;-84
2022/06/01 11:37:36;;;;;;;4.13;2.00;;;25.80;14.50;;;;;;4943215;29;20232;-83
2022/06/01 11:40:17;;;;;;;2.05;1.70;;;25.90;15.50;;;;;;4943507;29;20193;-83
2022/06/01 11:42:49;;;;;;;2.20;1.80;;;25.70;14.50;;;;;;4924193;29;20210;-83
2022/06/01 11:45:35;;;;;;;2.75;1.77;;;25.70;14.50;;;;;;4939024;29;20214;-94
2022/06/01 11:48:25;;;;;;;2.38;1.90;;;25.00;17.20;;;;;;4928709;29;20231;-81
2022/06/01 11:54:34;;;;;;;2.28;1.90;;;25.60;14.40;;;;;;4936510;29;20212;-86
2022/06/01 11:57:03;;;;;;;2.72;1.90;;;25.60;15.10;;;;;;4941415;29;20202;-83
2022/06/01 11:59:55;;;;;;;4.30;1.73;;;25.60;15.60;;;;;;4940261;29;20229;-84
2022/06/01 12:13:05;;;;;;;2.95;1.70;;;25.60;14.40;;;;;;4878229;29;20212;-84
2022/06/01 12:15:44;;;;;;;1.77;1.60;;;25.30;14.30;;;;;;4888494;29;20207;-83
2022/06/01 12:18:29;;;;;;;3.00;1.65;;;25.30;15.70;;;;;;4896149;29;20212;-83
2022/06/01 12:21:31;;;;;;;2.20;1.80;;;25.10;14.20;;;;;;4884014;29;20235;-85
2022/06/01 12:34:27;;;;;;;1.75;1.60;;;25.20;15.00;;;;;;4886370;29;20664;-83
2022/06/01 12:50:29;;;;;;;2.85;1.80;;;25.40;15.20;;;;;;4942331;29;20233;-84
2022/06/01 12:53:11;;;;;;;4.13;1.60;;;25.30;14.30;;;;;;4942164;29;20282;-84
2022/06/01 12:55:43;;;;;;;4.15;1.70;;;25.20;15.80;;;;;;4943261;29;20274;-85
2022/06/01 12:58:30;;;;;;;2.20;1.50;;;24.90;14.20;;;;;;4943371;29;20206;-82
2022/06/01 13:01:48;;;;;;;2.17;1.58;;;24.60;16.50;;;;;;4937934;29;20277;-84
2022/06/01 13:04:23;;;;;;;2.72;1.70;;;24.60;17.20;;;;;;4932275;29;20213;-83
2022/06/01 13:06:52;;;;;;;6.60;2.00;;;24.60;16.20;;;;;;4944447;28;20232;-84
2022/06/01 13:13:07;;;;;;;3.80;2.20;;;24.70;16.80;;;;;;4943957;29;20201;-83
2022/06/01 13:15:37;;;;;;;4.47;2.15;;;24.80;16.70;;;;;;4932817;29;20674;-85
2022/06/01 13:18:07;;;;;;;2.00;1.70;;;24.90;16.00;;;;;;4939557;29;20210;-85
2022/06/01 13:20:39;;;;;;;6.22;2.05;;;25.00;16.30;;;;;;4943493;29;20238;-81
2022/06/01 13:23:25;;;;;;;5.25;1.85;;;25.10;16.50;;;;;;4942950;29;20658;-82
2022/06/01 13:25:55;;;;;;;2.00;1.80;;;25.30;16.30;;;;;;4940903;29;20224;-82
2022/06/01 13:28:26;;;;;;;3.35;1.70;;;25.30;16.70;;;;;;4941142;29;20225;-80
2022/06/01 13:30:53;;;;;;;2.17;1.60;;;25.20;16.60;;;;;;4945597;29;20206;-86
2022/06/01 13:33:59;;;;;;;3.60;1.75;;;25.20;15.90;;;;;;4942381;29;20690;-86
2022/06/01 13:36:31;;;;;;;2.53;1.80;;;25.10;15.60;;;;;;4946516;29;20205;-87
2022/06/01 13:39:11;;;;;;;5.47;1.77;;;25.10;14.80;;;;;;4944798;29;20216;-85
2022/06/01 13:42:04;;;;;;;2.85;1.75;;;24.70;15.70;;;;;;4943035;29;20225;-85
2022/06/01 13:44:51;;;;;;;3.38;1.80;;;25.00;16.50;;;;;;4933108;29;20209;-86
2022/06/01 13:47:23;;;;;;;3.60;1.80;;;25.00;17.30;;;;;;4946727;28;21972;-87
2022/06/01 13:50:03;;;;;;;4.63;1.88;;;24.90;16.10;;;;;;4955253;29;20214;-84
2022/06/01 13:52:31;;;;;;;4.05;1.85;;;24.80;16.60;;;;;;4947438;29;20209;-84
2022/06/01 13:55:15;;;;;;;2.45;1.90;;;24.60;15.90;;;;;;4949052;29;20227;-86
2022/06/01 13:57:57;;;;;;;3.15;1.70;;;24.60;16.80;;;;;;4935179;29;20206;-84
2022/06/01 14:00:33;;;;;;;2.50;2.03;;;24.40;16.30;;;;;;4945835;29;20205;-84
2022/06/01 14:03:22;;;;;;;4.75;1.80;;;24.30;17.00;;;;;;4951620;29;20205;-85
2022/06/01 14:06:16;;;;;;;3.00;1.75;;;24.20;17.10;;;;;;4948738;29;20238;-82
2022/06/01 14:08:50;;;;;;;5.85;2.00;;;23.90;17.90;;;;;;4938968;29;20284;-85
2022/06/01 14:11:25;;;;;;;2.67;1.90;;;23.70;18.60;;;;;;4950304;29;20565;-93
2022/06/01 14:13:53;;;;;;;4.55;2.00;;;23.50;18.90;;;;;;4952216;29;20226;-87
2022/06/01 14:22:40;;;;;;;;;;;;;;;;;;;;;
2022/06/01 14:31:30;;;;;;;3.88;2.10;;;23.10;19.80;;;;;;4942287;29;20206;-87
2022/06/01 14:34:16;;;;;;;3.88;1.80;;;23.10;19.20;;;;;;4945537;29;20304;-87
2022/06/01 14:40:13;;;;;;;2.55;1.85;;;23.30;19.60;;;;;;4948272;29;20193;-91
2022/06/01 14:46:16;;;;;;;1.88;1.63;;;23.40;19.20;;;;;;4918048;29;20225;-84
2022/06/01 16:04:27;;;;;;;1.83;1.55;;;20.20;29.30;;;;;;4840905;29;20276;-85
2022/06/01 16:17:18;;;;;;;2.35;2.10;;;19.70;34.30;;;;;;4838906;29;20225;-84
2022/06/01 16:30:36;;;;;;;2.55;2.00;;;19.50;37.40;;;;;;4863684;29;20190;-85
2022/06/01 17:40:00;;;;;;;2.78;2.20;;;16.90;78.60;;;;;;4949861;29;20185;-89
2022/06/01 17:46:46;;;;;;;2.35;1.83;;;16.80;80.00;;;;;;4954199;29;20249;-88
2022/06/01 18:06:54;;;;;;;3.30;2.50;;;16.30;89.70;;;;;;4948481;29;20273;-86
2022/06/01 18:19:33;;;;;;;4.90;2.53;;;16.30;91.80;;;;;;4960798;29;20209;-87
2022/06/01 18:43:34;;;;;;;3.67;2.50;;;16.10;92.20;;;;;;4914949;29;20220;-87
2022/06/01 19:59:59;;;;;;;4.80;3.38;;;16.00;94.10;;;;;;4969383;28;20215;-87
2022/06/01 20:30:27;;;;;;;3.15;2.85;;;15.50;93.30;;;;;;4971149;28;20188;-88
2022/06/01 21:51:50;;;;;;;2.40;2.20;;;15.30;90.90;;;;;;4856289;29;20223;-86
2022/06/01 21:57:40;;;;;;;2.58;1.95;;;15.20;91.50;;;;;;4853161;29;20249;-86
2022/06/01 22:04:06;;;;;;;2.45;2.25;;;15.20;91.50;;;;;;4855420;29;20193;-86
2022/06/01 22:07:29;;;;;;;2.17;1.95;;;15.10;91.50;;;;;;4918171;29;20254;-87
